Time;durP1;ratioP1;P1;durP2;ratioP2;P2;SDS_P1;SDS_P2;PMS_P1;PMS_P2;Temp;Humidity;BMP_temperature;BMP_pressure;BME280_temperature;BME280_humidity;BME280_pressure;Samples;Min_cycle;Max_cycle;Signal;HPM_P1;HPM_P2
2021/06/17 00:01:26;;;;;;;1.58;1.13;;;24.00;66.90;;;;;;5113155;28;20051;-52
2021/06/17 00:03:52;;;;;;;1.52;1.30;;;24.00;67.00;;;;;;5126053;28;20119;-55
2021/06/17 00:06:18;;;;;;;1.92;1.40;;;23.90;66.90;;;;;;5115951;28;20052;-52
2021/06/17 00:08:43;;;;;;;1.60;1.40;;;24.00;67.00;;;;;;5133008;28;20130;-51
2021/06/17 00:11:09;;;;;;;1.98;1.50;;;23.90;67.00;;;;;;5133267;28;20043;-53
2021/06/17 00:13:36;;;;;;;1.52;1.30;;;23.90;66.90;;;;;;5132503;28;20061;-53
2021/06/17 00:16:06;;;;;;;1.38;1.27;;;23.90;66.90;;;;;;5130087;28;20122;-49
2021/06/17 00:18:32;;;;;;;1.65;1.20;;;24.00;67.00;;;;;;5129841;28;20040;-51
2021/06/17 00:20:59;;;;;;;1.50;1.40;;;23.90;67.00;;;;;;5132994;27;20044;-55
2021/06/17 00:23:25;;;;;;;1.60;1.50;;;23.90;66.90;;;;;;5137187;27;20038;-53
2021/06/17 00:25:51;;;;;;;2.35;1.70;;;23.90;67.00;;;;;;5135247;27;20467;-54
2021/06/17 00:28:17;;;;;;;1.40;1.30;;;23.90;67.00;;;;;;5124488;27;20855;-53
2021/06/17 00:30:43;;;;;;;2.17;1.30;;;23.90;67.70;;;;;;5136812;27;20039;-54
2021/06/17 00:33:09;;;;;;;1.77;1.60;;;23.90;67.00;;;;;;5127685;27;20046;-55
2021/06/17 00:35:36;;;;;;;1.50;1.40;;;23.90;67.00;;;;;;5128106;27;20506;-56
2021/06/17 00:38:03;;;;;;;1.77;1.60;;;23.90;67.00;;;;;;5134899;27;20043;-51
2021/06/17 00:40:29;;;;;;;1.60;1.50;;;23.90;67.00;;;;;;5136906;27;20118;-56
2021/06/17 00:42:56;;;;;;;1.50;1.40;;;23.90;67.00;;;;;;5136414;27;20071;-56
2021/06/17 00:45:37;;;;;;;1.42;1.33;;;23.90;67.00;;;;;;5125513;27;20050;-57
2021/06/17 00:48:04;;;;;;;1.50;1.40;;;23.90;67.00;;;;;;5132486;27;20035;-57
2021/06/17 00:50:33;;;;;;;0.98;0.98;;;23.90;67.00;;;;;;5134996;27;20043;-55
2021/06/17 00:52:59;;;;;;;1.30;1.20;;;23.90;67.00;;;;;;5136590;27;20043;-55
2021/06/17 00:55:25;;;;;;;1.67;1.35;;;23.90;67.10;;;;;;5136205;27;20118;-52
2021/06/17 00:57:51;;;;;;;1.55;1.35;;;23.90;67.10;;;;;;5117612;27;20051;-56
2021/06/17 01:00:18;;;;;;;1.52;1.42;;;23.90;67.10;;;;;;5134630;27;20100;-56
2021/06/17 01:02:44;;;;;;;1.67;1.45;;;23.90;67.10;;;;;;5121594;27;20039;-55
2021/06/17 01:05:17;;;;;;;1.80;1.60;;;23.90;67.10;;;;;;5131377;27;20039;-55
2021/06/17 01:07:47;;;;;;;1.73;1.45;;;23.90;67.10;;;;;;5127182;27;20046;-52
2021/06/17 01:10:23;;;;;;;1.70;1.55;;;23.90;67.10;;;;;;5134660;27;20031;-52
2021/06/17 01:13:07;;;;;;;1.50;1.40;;;23.90;67.10;;;;;;5135767;27;20224;-54
2021/06/17 01:15:40;;;;;;;1.55;1.45;;;23.90;67.10;;;;;;5123171;27;20146;-51
2021/06/17 01:18:10;;;;;;;1.60;1.50;;;23.90;67.10;;;;;;5136048;27;20043;-52
2021/06/17 01:20:52;;;;;;;1.85;1.73;;;23.90;67.10;;;;;;5128529;27;20039;-51
2021/06/17 01:23:39;;;;;;;2.05;1.50;;;23.90;67.20;;;;;;5115756;28;20060;-56
2021/06/17 01:26:24;;;;;;;1.38;1.23;;;23.90;67.20;;;;;;5131847;27;20047;-53
2021/06/17 01:28:54;;;;;;;1.70;1.60;;;23.90;67.10;;;;;;5115130;28;20086;-52
2021/06/17 01:31:24;;;;;;;1.50;1.40;;;23.90;67.20;;;;;;5115988;27;20067;-53
2021/06/17 01:33:53;;;;;;;1.40;1.30;;;23.90;67.20;;;;;;5115102;27;20067;-56
2021/06/17 01:36:33;;;;;;;1.67;1.58;;;23.90;67.20;;;;;;5119484;27;20092;-50
2021/06/17 01:39:01;;;;;;;1.60;1.48;;;23.90;67.20;;;;;;5135641;27;20067;-53
2021/06/17 01:41:30;;;;;;;1.33;1.23;;;23.90;67.20;;;;;;5111203;27;20052;-51
2021/06/17 01:43:58;;;;;;;1.52;1.42;;;23.90;67.30;;;;;;5115178;28;20054;-54
2021/06/17 01:46:26;;;;;;;1.60;1.50;;;23.90;67.30;;;;;;5134185;27;20478;-53
2021/06/17 01:48:54;;;;;;;1.70;1.60;;;23.80;67.30;;;;;;5130533;27;20035;-53
2021/06/17 01:51:22;;;;;;;1.50;1.40;;;23.90;67.30;;;;;;5123667;27;20043;-52
2021/06/17 01:53:50;;;;;;;1.60;1.50;;;23.80;67.30;;;;;;5133518;27;20042;-52
2021/06/17 01:56:19;;;;;;;1.98;1.40;;;23.80;67.30;;;;;;5134706;27;20035;-46
2021/06/17 01:58:46;;;;;;;1.73;1.58;;;23.80;67.30;;;;;;5133498;27;20047;-50
2021/06/17 02:01:17;;;;;;;1.77;1.67;;;23.80;67.30;;;;;;5135184;27;20039;-43
2021/06/17 02:03:47;;;;;;;1.70;1.60;;;23.90;67.40;;;;;;5121106;27;20043;-47
2021/06/17 02:06:15;;;;;;;1.50;1.40;;;23.90;67.40;;;;;;5116071;27;20039;-51
2021/06/17 02:08:45;;;;;;;1.70;1.60;;;23.90;67.50;;;;;;5135049;27;20050;-49
2021/06/17 02:11:12;;;;;;;1.95;1.58;;;23.80;67.40;;;;;;5132923;27;20051;-51
2021/06/17 02:13:40;;;;;;;1.58;1.40;;;23.80;67.40;;;;;;5115265;27;20064;-52
2021/06/17 02:16:06;;;;;;;1.70;1.60;;;23.80;67.40;;;;;;5127454;27;20047;-46
2021/06/17 02:18:35;;;;;;;1.65;1.52;;;23.90;68.20;;;;;;5129509;27;20039;-51
2021/06/17 02:21:01;;;;;;;1.77;1.63;;;23.80;67.40;;;;;;5114274;28;20043;-46
2021/06/17 02:23:31;;;;;;;1.67;1.50;;;23.90;67.50;;;;;;5117975;27;20042;-52
2021/06/17 02:25:58;;;;;;;1.65;1.55;;;23.80;67.40;;;;;;5132922;27;20050;-52
2021/06/17 02:28:27;;;;;;;1.83;1.58;;;23.80;67.40;;;;;;5134428;27;20039;-53
2021/06/17 02:30:55;;;;;;;1.77;1.67;;;23.80;67.50;;;;;;5115285;27;20050;-53
2021/06/17 02:33:22;;;;;;;1.50;1.40;;;23.80;67.40;;;;;;5114614;27;20411;-46
2021/06/17 02:35:52;;;;;;;1.73;1.63;;;23.80;67.50;;;;;;5114825;27;20123;-52
2021/06/17 02:38:23;;;;;;;1.52;1.40;;;23.80;67.40;;;;;;5114056;28;20043;-54
2021/06/17 02:40:50;;;;;;;2.63;1.60;;;23.80;67.40;;;;;;5113706;28;20057;-46
2021/06/17 02:43:18;;;;;;;2.00;1.60;;;23.80;67.40;;;;;;5131735;27;20118;-53
2021/06/17 02:45:45;;;;;;;1.63;1.50;;;23.80;67.50;;;;;;5120851;27;20063;-51
2021/06/17 02:48:12;;;;;;;1.90;1.75;;;23.80;67.40;;;;;;5113591;28;20051;-53
2021/06/17 02:50:38;;;;;;;1.63;1.52;;;23.80;67.40;;;;;;5113080;27;20040;-53
2021/06/17 02:53:04;;;;;;;1.63;1.52;;;23.80;67.40;;;;;;5115127;27;20044;-49
2021/06/17 02:55:30;;;;;;;1.50;1.40;;;23.80;67.40;;;;;;5132869;27;20099;-53
2021/06/17 02:58:14;;;;;;;2.25;2.08;;;23.80;67.50;;;;;;5133162;27;20038;-52
2021/06/17 03:00:49;;;;;;;1.63;1.52;;;23.80;67.40;;;;;;5124982;27;20203;-46
2021/06/17 03:03:26;;;;;;;2.50;1.77;;;23.80;67.40;;;;;;5112527;28;20062;-51
2021/06/17 03:06:34;;;;;;;1.60;1.50;;;23.80;67.40;;;;;;5111960;28;20079;-48
2021/06/17 03:09:03;;;;;;;2.10;1.88;;;23.80;67.40;;;;;;5011149;28;20128;-55
2021/06/17 03:11:34;;;;;;;1.80;1.70;;;23.80;67.50;;;;;;5018859;28;20057;-55
2021/06/17 03:14:05;;;;;;;2.42;2.00;;;23.80;67.50;;;;;;5024769;28;20046;-52
2021/06/17 03:16:35;;;;;;;1.92;1.73;;;23.80;67.60;;;;;;5014414;28;20390;-55
2021/06/17 03:19:02;;;;;;;1.77;1.67;;;23.80;67.60;;;;;;5030787;28;20209;-55
2021/06/17 03:21:31;;;;;;;1.95;1.80;;;23.70;67.50;;;;;;5028456;28;20061;-52
2021/06/17 03:23:58;;;;;;;2.20;2.00;;;23.70;67.60;;;;;;5030661;28;20458;-48
2021/06/17 03:26:26;;;;;;;2.10;1.85;;;23.80;67.80;;;;;;5030285;28;20057;-43
2021/06/17 03:28:54;;;;;;;2.20;2.00;;;23.70;67.60;;;;;;5031015;28;20068;-55
2021/06/17 03:31:20;;;;;;;2.20;2.00;;;23.70;67.60;;;;;;5012088;28;20049;-47
2021/06/17 03:33:50;;;;;;;2.10;1.90;;;23.70;67.60;;;;;;5011406;28;20100;-51
2021/06/17 03:36:17;;;;;;;2.00;1.90;;;23.80;67.60;;;;;;5017958;28;20619;-54
2021/06/17 03:38:44;;;;;;;2.03;1.80;;;23.80;67.70;;;;;;5021587;28;20046;-53
2021/06/17 03:41:13;;;;;;;2.60;1.98;;;23.80;67.70;;;;;;5114165;27;20043;-53
2021/06/17 03:43:40;;;;;;;2.50;2.30;;;23.80;67.70;;;;;;5124154;27;20054;-54
2021/06/17 03:46:09;;;;;;;2.40;1.88;;;23.70;67.60;;;;;;5130036;27;20473;-54
2021/06/17 03:48:41;;;;;;;1.85;1.75;;;23.70;67.70;;;;;;5133403;27;20058;-52
2021/06/17 03:51:07;;;;;;;1.90;1.80;;;23.70;67.60;;;;;;5132795;27;20043;-52
2021/06/17 03:53:34;;;;;;;2.95;2.70;;;23.70;67.70;;;;;;5131251;28;20039;-52
2021/06/17 03:56:00;;;;;;;2.88;2.15;;;23.70;67.70;;;;;;5131593;27;20067;-47
2021/06/17 03:58:27;;;;;;;2.30;2.10;;;23.80;67.80;;;;;;5132875;28;20053;-53
2021/06/17 04:00:55;;;;;;;3.00;2.47;;;23.70;67.70;;;;;;5132043;28;20050;-56
2021/06/17 04:03:23;;;;;;;2.95;2.10;;;23.70;67.70;;;;;;5132987;28;20073;-53
2021/06/17 04:05:49;;;;;;;2.83;2.38;;;23.70;68.40;;;;;;5124836;28;20071;-52
2021/06/17 04:08:15;;;;;;;2.58;2.30;;;23.70;67.70;;;;;;5112307;28;20551;-50
2021/06/17 04:10:42;;;;;;;2.78;2.53;;;23.70;67.70;;;;;;5133044;28;20457;-52
2021/06/17 04:13:11;;;;;;;2.17;1.95;;;23.70;67.70;;;;;;5115032;28;20048;-52
2021/06/17 04:15:38;;;;;;;2.28;2.08;;;23.70;67.70;;;;;;5113589;28;20047;-53
2021/06/17 04:18:05;;;;;;;2.65;2.30;;;23.70;67.70;;;;;;5112488;28;20564;-43
2021/06/17 04:20:43;;;;;;;2.20;2.00;;;23.70;67.70;;;;;;5124135;28;20529;-53
2021/06/17 04:23:11;;;;;;;2.53;2.33;;;23.70;67.70;;;;;;5132711;28;20344;-48
2021/06/17 04:25:40;;;;;;;2.80;2.60;;;23.70;67.80;;;;;;5120777;28;20044;-47
2021/06/17 04:28:06;;;;;;;2.70;2.50;;;23.70;67.80;;;;;;5128884;28;20043;-45
2021/06/17 04:30:33;;;;;;;2.40;2.20;;;23.70;67.80;;;;;;5132942;28;20035;-47
2021/06/17 04:33:04;;;;;;;2.42;2.22;;;23.70;67.80;;;;;;5117830;28;20047;-48
2021/06/17 04:35:31;;;;;;;2.40;2.20;;;23.70;67.80;;;;;;5113358;28;20106;-46
2021/06/17 04:37:58;;;;;;;2.30;2.10;;;23.70;67.80;;;;;;5111649;28;20059;-49
2021/06/17 04:40:25;;;;;;;2.42;2.22;;;23.70;67.80;;;;;;5112106;28;20403;-49
2021/06/17 04:42:56;;;;;;;2.25;2.05;;;23.70;67.80;;;;;;5112195;28;20055;-45
2021/06/17 04:45:23;;;;;;;2.83;2.30;;;23.70;67.80;;;;;;5113192;28;20119;-47
2021/06/17 04:47:51;;;;;;;2.70;2.40;;;23.70;67.80;;;;;;5113351;28;20043;-47
2021/06/17 04:50:21;;;;;;;2.70;2.50;;;23.70;67.80;;;;;;5111962;28;20483;-50
2021/06/17 04:52:50;;;;;;;2.30;2.10;;;23.70;67.80;;;;;;5112042;28;20118;-46
2021/06/17 04:55:16;;;;;;;2.58;2.38;;;23.70;67.90;;;;;;5111830;28;20064;-47
2021/06/17 04:57:42;;;;;;;2.42;2.22;;;23.70;67.90;;;;;;5113408;28;20064;-49
2021/06/17 05:00:08;;;;;;;3.22;2.30;;;23.70;67.90;;;;;;5122231;28;20510;-51
2021/06/17 05:02:34;;;;;;;2.30;2.10;;;23.70;67.90;;;;;;5132066;28;20142;-48
2021/06/17 05:05:00;;;;;;;3.10;2.40;;;23.70;67.90;;;;;;5132293;28;20079;-44
2021/06/17 05:12:59;;;;;;;2.30;2.10;;;23.70;67.90;;;;;;5071035;28;20513;-46
2021/06/17 05:15:25;;;;;;;2.45;2.25;;;23.70;67.90;;;;;;5052576;28;20482;-45
2021/06/17 05:17:51;;;;;;;2.47;2.17;;;23.70;68.10;;;;;;5052547;28;20107;-49
2021/06/17 05:20:17;;;;;;;2.47;2.20;;;23.70;67.90;;;;;;5053448;28;20080;-47
2021/06/17 05:22:44;;;;;;;2.50;2.30;;;23.70;67.90;;;;;;5052626;28;20053;-45
2021/06/17 05:25:13;;;;;;;2.28;2.08;;;23.70;67.90;;;;;;5061201;28;20048;-43
2021/06/17 05:27:40;;;;;;;2.60;2.40;;;23.70;67.90;;;;;;5072326;28;20547;-43
2021/06/17 05:30:07;;;;;;;2.40;2.20;;;23.70;67.90;;;;;;5064624;28;20079;-43
2021/06/17 05:32:33;;;;;;;2.58;2.25;;;23.70;67.90;;;;;;5053476;28;20051;-45
2021/06/17 05:34:59;;;;;;;2.47;2.28;;;23.70;67.90;;;;;;5056799;28;20143;-45
2021/06/17 05:37:24;;;;;;;2.33;2.13;;;23.70;67.90;;;;;;5056467;28;20147;-47
2021/06/17 05:39:51;;;;;;;2.42;2.22;;;23.70;67.90;;;;;;5064657;28;20084;-46
2021/06/17 05:42:16;;;;;;;2.15;1.95;;;23.70;67.90;;;;;;5053051;28;20041;-54
2021/06/17 05:44:44;;;;;;;2.20;2.00;;;23.70;67.90;;;;;;5068524;28;20173;-41
2021/06/17 05:47:11;;;;;;;2.30;2.10;;;23.70;67.90;;;;;;5092620;28;20056;-51
2021/06/17 05:49:36;;;;;;;2.25;2.05;;;23.70;67.90;;;;;;5122982;27;20043;-56
2021/06/17 05:52:04;;;;;;;2.13;1.92;;;23.70;67.90;;;;;;5134182;27;20043;-53
2021/06/17 05:54:29;;;;;;;3.95;2.47;;;23.70;67.90;;;;;;5124132;27;20044;-55
2021/06/17 05:56:55;;;;;;;2.30;2.10;;;23.70;67.90;;;;;;5131049;27;20108;-46
2021/06/17 05:59:21;;;;;;;2.50;2.30;;;23.70;67.90;;;;;;5133153;27;20531;-51
2021/06/17 06:01:47;;;;;;;2.45;2.25;;;23.70;67.90;;;;;;5115029;27;20062;-50
2021/06/17 06:04:12;;;;;;;2.35;2.15;;;23.70;67.90;;;;;;5134609;27;20093;-49
2021/06/17 06:06:38;;;;;;;2.30;2.10;;;23.70;67.90;;;;;;5134778;27;20550;-49
2021/06/17 06:09:04;;;;;;;2.20;2.00;;;23.70;67.90;;;;;;5134753;27;20043;-46
2021/06/17 06:11:30;;;;;;;2.25;2.05;;;23.70;67.90;;;;;;5129096;27;20048;-46
2021/06/17 06:13:56;;;;;;;2.00;1.88;;;23.70;67.90;;;;;;5114951;27;20389;-47
2021/06/17 06:16:22;;;;;;;2.15;1.95;;;23.70;67.90;;;;;;5114175;28;20044;-50
2021/06/17 06:18:48;;;;;;;2.28;2.08;;;23.70;67.90;;;;;;5113567;28;20104;-50
2021/06/17 06:21:13;;;;;;;2.45;2.25;;;23.70;67.90;;;;;;5097038;28;20047;-47
2021/06/17 06:23:41;;;;;;;2.75;1.98;;;23.70;67.90;;;;;;5114308;28;20255;-48
2021/06/17 06:26:06;;;;;;;2.42;2.22;;;23.70;67.90;;;;;;5114091;27;20043;-46
2021/06/17 06:28:32;;;;;;;2.63;2.17;;;23.70;67.90;;;;;;5126971;27;20487;-50
2021/06/17 06:30:58;;;;;;;2.10;1.90;;;23.70;67.90;;;;;;5132796;27;20127;-49
2021/06/17 06:33:24;;;;;;;2.42;2.22;;;23.70;67.90;;;;;;5134472;27;20452;-50
2021/06/17 06:35:51;;;;;;;2.20;2.00;;;23.80;68.00;;;;;;5131473;27;20047;-50
2021/06/17 06:38:17;;;;;;;2.20;2.00;;;23.70;67.90;;;;;;5113808;28;20105;-50
2021/06/17 06:40:43;;;;;;;1.98;1.80;;;23.70;67.90;;;;;;5114907;27;20035;-50
2021/06/17 06:43:11;;;;;;;2.10;1.90;;;23.80;68.00;;;;;;5115459;27;20043;-47
2021/06/17 06:45:37;;;;;;;2.20;2.00;;;23.80;68.00;;;;;;5134238;27;20135;-48
2021/06/17 06:48:03;;;;;;;2.13;2.00;;;23.80;68.00;;;;;;5133719;27;20039;-49
2021/06/17 06:50:29;;;;;;;1.90;1.80;;;23.80;68.00;;;;;;5134162;27;20114;-48
2021/06/17 06:52:55;;;;;;;2.33;2.13;;;23.80;68.10;;;;;;5132091;27;20059;-50
2021/06/17 06:55:21;;;;;;;2.22;2.03;;;23.80;68.00;;;;;;5133991;27;20086;-48
2021/06/17 06:57:48;;;;;;;2.13;1.92;;;23.80;68.10;;;;;;5133541;27;20047;-47
2021/06/17 07:00:15;;;;;;;2.30;2.10;;;23.80;68.00;;;;;;5113073;27;20048;-48
2021/06/17 07:02:41;;;;;;;2.28;2.08;;;23.80;68.10;;;;;;5114580;27;20071;-48
2021/06/17 07:05:08;;;;;;;2.22;2.03;;;23.80;68.10;;;;;;5113233;28;20436;-47
2021/06/17 07:07:34;;;;;;;2.30;2.10;;;23.80;68.00;;;;;;5113346;28;20039;-46
2021/06/17 07:10:00;;;;;;;2.17;1.98;;;23.80;68.10;;;;;;5113293;28;20044;-43
2021/06/17 07:12:26;;;;;;;2.17;1.95;;;23.80;68.10;;;;;;5114259;27;20043;-49
2021/06/17 07:14:51;;;;;;;2.40;2.20;;;23.80;68.10;;;;;;5123326;27;20039;-49
2021/06/17 07:17:17;;;;;;;1.98;1.80;;;23.90;68.10;;;;;;5133036;27;20036;-50
2021/06/17 07:19:43;;;;;;;2.10;1.90;;;23.80;68.00;;;;;;5131505;27;20046;-48
2021/06/17 07:22:09;;;;;;;1.83;1.73;;;23.80;68.00;;;;;;5133255;27;20075;-45
2021/06/17 07:24:35;;;;;;;2.13;1.92;;;23.90;68.00;;;;;;5122622;27;20044;-45
2021/06/17 07:27:03;;;;;;;2.53;1.80;;;23.90;68.10;;;;;;5129444;27;20487;-46
2021/06/17 07:29:29;;;;;;;1.80;1.70;;;23.90;68.00;;;;;;5133305;27;20084;-48
2021/06/17 07:31:55;;;;;;;2.00;1.80;;;23.90;68.00;;;;;;5132644;27;20045;-47
2021/06/17 07:34:22;;;;;;;2.45;1.92;;;23.90;68.00;;;;;;5132996;27;20121;-48
2021/06/17 07:36:48;;;;;;;2.10;1.90;;;23.90;68.00;;;;;;5132989;27;20131;-47
2021/06/17 07:39:15;;;;;;;1.98;1.88;;;23.90;68.00;;;;;;5133044;27;20070;-46
2021/06/17 07:41:41;;;;;;;2.05;1.85;;;23.90;67.90;;;;;;5133259;27;20043;-47
2021/06/17 07:44:08;;;;;;;1.90;1.80;;;23.90;67.90;;;;;;5133651;27;20437;-47
2021/06/17 07:46:34;;;;;;;2.20;2.00;;;23.90;67.90;;;;;;5132890;27;20395;-45
2021/06/17 07:49:01;;;;;;;1.80;1.70;;;23.90;67.90;;;;;;5133429;27;20047;-52
2021/06/17 07:51:31;;;;;;;2.00;1.83;;;24.00;67.90;;;;;;5114854;27;20551;-50
2021/06/17 07:54:01;;;;;;;2.30;2.10;;;24.00;67.90;;;;;;5133260;27;20483;-50
2021/06/17 07:56:28;;;;;;;1.98;1.85;;;23.90;67.80;;;;;;5133378;28;20050;-51
2021/06/17 07:58:54;;;;;;;1.60;1.50;;;24.00;67.80;;;;;;5133445;28;20066;-51
2021/06/17 08:01:20;;;;;;;1.92;1.80;;;24.00;67.80;;;;;;5133060;28;20371;-50
2021/06/17 08:03:46;;;;;;;2.15;1.90;;;24.00;67.80;;;;;;5132894;28;20053;-50
2021/06/17 08:06:12;;;;;;;1.70;1.60;;;24.00;67.70;;;;;;5133542;28;20047;-50
2021/06/17 08:08:37;;;;;;;1.70;1.60;;;24.00;67.70;;;;;;5133670;28;20044;-51
2021/06/17 08:11:03;;;;;;;2.05;1.90;;;24.00;67.70;;;;;;5133983;28;20043;-49
2021/06/17 08:13:29;;;;;;;2.10;1.90;;;24.10;67.70;;;;;;5133155;28;20467;-50
2021/06/17 08:15:55;;;;;;;2.10;1.80;;;24.10;67.60;;;;;;5133276;28;20043;-46
2021/06/17 08:18:21;;;;;;;2.03;1.70;;;24.10;67.80;;;;;;5132693;28;20130;-51
2021/06/17 08:20:46;;;;;;;1.80;1.70;;;24.30;67.60;;;;;;5133243;28;20414;-47
2021/06/17 08:23:14;;;;;;;2.13;1.95;;;24.30;67.40;;;;;;5133210;28;20050;-51
2021/06/17 08:25:41;;;;;;;3.00;2.70;;;24.30;67.30;;;;;;5133192;28;20103;-50
2021/06/17 08:28:06;;;;;;;9.95;6.05;;;24.30;67.20;;;;;;5113630;28;20491;-51
2021/06/17 08:30:34;;;;;;;8.50;4.28;;;24.40;67.80;;;;;;5132997;28;20122;-50
2021/06/17 08:33:00;;;;;;;6.55;5.55;;;24.70;67.30;;;;;;5132341;28;20051;-48
2021/06/17 08:35:26;;;;;;;6.97;6.15;;;24.90;66.90;;;;;;5132708;28;20092;-50
2021/06/17 08:37:53;;;;;;;9.27;6.40;;;24.90;66.60;;;;;;5132766;28;20051;-48
2021/06/17 08:40:26;;;;;;;13.32;6.72;;;25.00;66.60;;;;;;5132817;28;20043;-48
2021/06/17 08:42:52;;;;;;;8.02;6.85;;;25.00;66.20;;;;;;5134899;27;20065;-49
2021/06/17 08:45:18;;;;;;;7.93;6.78;;;25.00;66.00;;;;;;5136797;27;20551;-47
2021/06/17 08:47:45;;;;;;;8.52;7.13;;;25.00;66.00;;;;;;5136573;27;20053;-46
2021/06/17 08:50:13;;;;;;;7.32;6.57;;;24.90;65.90;;;;;;5136072;27;20053;-47
2021/06/17 08:52:40;;;;;;;9.52;6.90;;;24.90;66.00;;;;;;5136687;27;20130;-53
2021/06/17 08:55:34;;;;;;;7.65;6.70;;;24.90;66.00;;;;;;5136813;27;20057;-52
2021/06/17 08:58:00;;;;;;;9.23;6.28;;;24.90;66.00;;;;;;5132771;27;20066;-48
2021/06/17 09:00:31;;;;;;;6.45;5.72;;;24.80;66.00;;;;;;5136548;27;20047;-53
2021/06/17 09:03:11;;;;;;;6.93;6.22;;;24.80;66.00;;;;;;5136705;27;20050;-51
2021/06/17 09:05:48;;;;;;;6.43;5.50;;;24.80;66.10;;;;;;5136337;27;20383;-48
2021/06/17 09:08:16;;;;;;;6.82;5.93;;;24.80;66.10;;;;;;5136653;27;20070;-51
2021/06/17 09:10:43;;;;;;;6.75;6.00;;;24.80;66.20;;;;;;5136616;27;20131;-50
2021/06/17 09:13:10;;;;;;;6.35;5.75;;;24.80;66.20;;;;;;5136034;27;20047;-48
2021/06/17 09:15:39;;;;;;;6.47;5.50;;;24.80;66.20;;;;;;5136020;27;20095;-49
2021/06/17 09:18:21;;;;;;;5.75;5.15;;;24.80;66.20;;;;;;5136079;27;20118;-53
2021/06/17 09:20:53;;;;;;;6.00;5.40;;;24.80;66.20;;;;;;5135653;27;20047;-47
2021/06/17 09:23:20;;;;;;;6.40;5.80;;;24.80;66.20;;;;;;5136317;27;20084;-50
2021/06/17 09:25:51;;;;;;;6.13;5.53;;;24.80;66.20;;;;;;5135841;27;20050;-52
2021/06/17 09:28:17;;;;;;;6.30;5.72;;;24.80;66.50;;;;;;5135785;27;20491;-48
2021/06/17 09:30:43;;;;;;;5.63;5.00;;;24.80;66.90;;;;;;5136122;27;20045;-50
2021/06/17 09:33:12;;;;;;;5.40;4.80;;;24.80;66.20;;;;;;5135791;27;20409;-50
2021/06/17 09:35:51;;;;;;;5.13;4.63;;;24.80;66.20;;;;;;5135419;27;20043;-48
2021/06/17 09:38:17;;;;;;;5.82;5.32;;;24.80;66.20;;;;;;5135413;27;20047;-52
2021/06/17 09:40:48;;;;;;;5.20;4.80;;;24.80;66.20;;;;;;5135687;27;20050;-51
2021/06/17 09:43:27;;;;;;;5.15;4.65;;;24.80;66.10;;;;;;5135553;27;20050;-50
2021/06/17 09:45:59;;;;;;;6.38;5.18;;;24.80;66.10;;;;;;5135629;27;20047;-51
2021/06/17 09:48:44;;;;;;;5.65;5.05;;;24.80;66.10;;;;;;5135664;27;20043;-51
2021/06/17 09:51:37;;;;;;;5.00;4.55;;;24.80;66.10;;;;;;5135032;27;20099;-49
2021/06/17 09:54:26;;;;;;;4.78;4.38;;;24.90;66.10;;;;;;5134637;27;20039;-49
2021/06/17 09:57:05;;;;;;;4.70;4.30;;;24.90;66.10;;;;;;5135344;27;20043;-51
2021/06/17 09:59:34;;;;;;;4.70;4.28;;;24.90;66.10;;;;;;5135553;27;20043;-49
2021/06/17 10:02:01;;;;;;;5.13;4.63;;;24.90;66.00;;;;;;5135378;27;20085;-48
2021/06/17 10:04:27;;;;;;;4.75;4.35;;;24.90;66.00;;;;;;5135242;27;20494;-48
2021/06/17 10:06:53;;;;;;;4.72;4.32;;;25.00;66.00;;;;;;5134760;27;20096;-49
2021/06/17 10:09:19;;;;;;;4.50;4.10;;;25.00;66.00;;;;;;5134880;27;20080;-47
2021/06/17 10:11:47;;;;;;;4.53;4.13;;;25.00;66.00;;;;;;5134737;27;20536;-48
2021/06/17 10:14:13;;;;;;;5.22;4.57;;;25.00;65.90;;;;;;5134772;27;20418;-49
2021/06/17 10:16:42;;;;;;;4.82;4.20;;;25.00;65.90;;;;;;5135118;27;20050;-49
2021/06/17 10:19:10;;;;;;;4.35;3.88;;;25.10;65.90;;;;;;5135041;27;20086;-43
2021/06/17 10:21:36;;;;;;;4.47;4.07;;;25.00;65.80;;;;;;5135045;27;20162;-47
2021/06/17 10:24:10;;;;;;;4.63;4.22;;;25.10;65.80;;;;;;5134541;27;20058;-49
2021/06/17 10:26:48;;;;;;;4.55;4.10;;;25.10;65.80;;;;;;5134833;27;20548;-50
2021/06/17 10:29:39;;;;;;;4.75;4.20;;;25.10;65.70;;;;;;5134914;27;20047;-52
2021/06/17 10:32:07;;;;;;;4.80;4.40;;;25.10;65.70;;;;;;5134840;27;20046;-50
2021/06/17 10:34:37;;;;;;;4.50;4.10;;;25.10;65.70;;;;;;5134960;27;20163;-47
2021/06/17 10:37:15;;;;;;;4.65;4.25;;;25.10;66.30;;;;;;5134742;27;20127;-50
2021/06/17 10:39:45;;;;;;;4.25;3.85;;;25.20;65.70;;;;;;5134152;27;20050;-51
2021/06/17 10:42:13;;;;;;;4.00;3.65;;;25.10;65.60;;;;;;5134650;27;20054;-51
2021/06/17 10:44:56;;;;;;;3.95;3.58;;;25.20;65.60;;;;;;5134512;27;20043;-50
2021/06/17 10:47:53;;;;;;;4.18;3.83;;;25.20;66.20;;;;;;5134447;27;20111;-51
2021/06/17 10:50:29;;;;;;;4.20;3.90;;;25.20;65.50;;;;;;5134324;27;20039;-51
2021/06/17 10:53:21;;;;;;;4.53;4.13;;;25.20;65.50;;;;;;5134220;27;20043;-50
2021/06/17 10:56:16;;;;;;;5.20;4.10;;;25.30;65.50;;;;;;5030910;28;20064;-50
2021/06/17 10:58:45;;;;;;;4.55;4.15;;;25.30;65.50;;;;;;5029510;28;20081;-51
2021/06/17 11:01:21;;;;;;;4.35;3.95;;;25.30;65.40;;;;;;5030713;28;20061;-52
2021/06/17 11:04:01;;;;;;;3.90;3.60;;;25.30;65.40;;;;;;5030754;28;20045;-50
2021/06/17 11:06:53;;;;;;;4.10;3.70;;;25.30;65.40;;;;;;5030322;28;20136;-52
2021/06/17 11:09:48;;;;;;;4.57;3.55;;;25.30;65.30;;;;;;5030231;28;20053;-51
2021/06/17 11:12:37;;;;;;;4.32;3.90;;;25.40;65.30;;;;;;5030398;28;20049;-46
2021/06/17 11:15:03;;;;;;;3.85;3.55;;;25.40;65.30;;;;;;5016873;28;20057;-46
2021/06/17 11:17:33;;;;;;;3.88;3.47;;;25.40;65.30;;;;;;5030707;28;20080;-50
2021/06/17 11:20:03;;;;;;;4.38;3.97;;;25.40;65.20;;;;;;5030290;28;20068;-50
2021/06/17 11:22:44;;;;;;;4.03;3.63;;;25.40;65.20;;;;;;5030007;28;20076;-52
2021/06/17 11:25:31;;;;;;;3.67;3.38;;;25.40;65.10;;;;;;5029676;28;20512;-50
2021/06/17 11:28:08;;;;;;;3.72;3.42;;;25.40;65.00;;;;;;5030294;28;20084;-49
2021/06/17 11:30:42;;;;;;;3.90;3.45;;;25.50;65.10;;;;;;5030213;28;20045;-47
2021/06/17 11:33:14;;;;;;;4.13;3.75;;;25.50;65.10;;;;;;5097500;27;20051;-51
2021/06/17 11:35:47;;;;;;;4.10;3.63;;;25.50;65.10;;;;;;5133094;27;20059;-51
2021/06/17 11:38:20;;;;;;;3.53;3.20;;;25.50;65.00;;;;;;5133102;27;20078;-51
2021/06/17 11:40:46;;;;;;;3.97;3.60;;;25.50;65.10;;;;;;5133039;27;20058;-51
2021/06/17 11:43:12;;;;;;;4.38;3.53;;;25.60;65.00;;;;;;5133429;27;20043;-46
2021/06/17 11:45:38;;;;;;;4.10;3.70;;;25.60;65.00;;;;;;5133353;27;20054;-50
2021/06/17 11:48:08;;;;;;;3.85;3.45;;;25.60;65.00;;;;;;5133310;27;20070;-51
2021/06/17 11:50:49;;;;;;;3.72;3.42;;;25.60;64.90;;;;;;5133168;27;20043;-50
2021/06/17 11:53:23;;;;;;;3.88;3.47;;;25.60;64.90;;;;;;5132962;27;20043;-46
2021/06/17 11:55:57;;;;;;;4.15;3.42;;;25.60;64.90;;;;;;5133188;28;20077;-47
2021/06/17 11:58:26;;;;;;;3.70;3.40;;;25.70;64.90;;;;;;5133007;28;20432;-47
2021/06/17 12:00:53;;;;;;;3.45;3.15;;;25.60;64.80;;;;;;5133158;28;20051;-47
2021/06/17 12:03:26;;;;;;;3.75;3.45;;;25.70;64.90;;;;;;5132903;28;20043;-46
2021/06/17 12:06:04;;;;;;;4.03;3.63;;;25.70;64.80;;;;;;5132830;28;20058;-50
2021/06/17 12:08:30;;;;;;;3.65;3.35;;;25.70;64.80;;;;;;5133042;28;20047;-54
2021/06/17 12:11:01;;;;;;;3.70;3.20;;;25.70;64.80;;;;;;5133334;28;20100;-47
2021/06/17 12:13:27;;;;;;;3.88;3.40;;;25.70;64.70;;;;;;5132475;28;20042;-50
2021/06/17 12:15:58;;;;;;;3.20;2.80;;;25.70;64.70;;;;;;5133017;28;20490;-49
2021/06/17 12:18:24;;;;;;;3.60;3.30;;;25.70;64.70;;;;;;5135942;27;20120;-47
2021/06/17 12:20:51;;;;;;;3.58;3.28;;;25.80;64.80;;;;;;5137395;27;20066;-45
2021/06/17 12:23:22;;;;;;;3.50;3.20;;;25.80;65.40;;;;;;5136953;27;20039;-47
2021/06/17 12:26:07;;;;;;;3.53;3.22;;;25.80;64.70;;;;;;5136779;27;20548;-44
2021/06/17 12:28:57;;;;;;;3.55;3.25;;;25.80;64.70;;;;;;5136640;27;20128;-47
2021/06/17 12:31:41;;;;;;;3.25;2.95;;;25.80;64.60;;;;;;5136919;27;20055;-49
2021/06/17 12:34:13;;;;;;;3.45;3.15;;;25.80;64.60;;;;;;5136825;27;20047;-46
2021/06/17 12:36:40;;;;;;;3.40;3.10;;;25.80;64.60;;;;;;5137086;27;20043;-47
2021/06/17 12:39:17;;;;;;;3.70;3.40;;;25.80;64.70;;;;;;5136849;27;20039;-46
2021/06/17 12:41:49;;;;;;;4.03;3.13;;;25.90;64.60;;;;;;5136949;27;20051;-46
2021/06/17 12:44:39;;;;;;;3.83;3.08;;;25.90;64.60;;;;;;5136578;27;20039;-47
2021/06/17 12:47:28;;;;;;;3.00;2.80;;;25.90;64.50;;;;;;5136721;27;20043;-47
2021/06/17 12:52:39;;;;;;;3.33;3.03;;;25.90;64.50;;;;;;5136885;27;20047;-46
2021/06/17 12:55:07;;;;;;;3.25;2.90;;;25.90;64.50;;;;;;5136747;27;20051;-47
2021/06/17 12:57:33;;;;;;;3.35;3.10;;;25.90;64.50;;;;;;5136643;27;20050;-43
2021/06/17 12:59:59;;;;;;;3.22;2.92;;;25.90;64.50;;;;;;5136283;27;20035;-47
2021/06/17 13:02:32;;;;;;;2.72;2.50;;;25.90;64.50;;;;;;5137288;27;20424;-47
2021/06/17 13:05:11;;;;;;;3.10;2.80;;;26.00;64.50;;;;;;5136554;27;20513;-46
2021/06/17 13:08:00;;;;;;;3.05;2.75;;;26.00;64.50;;;;;;5136452;27;20124;-44
2021/06/17 13:10:27;;;;;;;3.20;2.90;;;26.00;64.40;;;;;;5120425;27;20055;-47